Time;durP1;ratioP1;P1;durP2;ratioP2;P2;SDS_P1;SDS_P2;PMS_P1;PMS_P2;Temp;Humidity;BMP_temperature;BMP_pressure;BME280_temperature;BME280_humidity;BME280_pressure;Samples;Min_cycle;Max_cycle;Signal;HPM_P1;HPM_P2
2022/09/13 00:01:01;;;;;;;;;;;14.90;99.90;;;;;;5080922;28;20062;-65
2022/09/13 00:03:27;;;;;;;6.63;3.60;;;14.90;99.90;;;;;;5081329;28;19987;-66
2022/09/13 00:05:52;;;;;;;4.70;3.30;;;14.90;99.90;;;;;;5081113;28;20048;-66
2022/09/13 00:08:18;;;;;;;;;;;14.90;99.90;;;;;;5080803;28;20043;-66
2022/09/13 00:10:45;;;;;;;3.65;3.00;;;14.90;99.90;;;;;;5080820;28;20128;-66
2022/09/13 00:13:12;;;;;;;11.43;4.30;;;14.80;99.90;;;;;;5080551;28;20042;-64
2022/09/13 00:15:47;;;;;;;6.80;2.97;;;14.80;99.90;;;;;;5080466;28;20083;-66
2022/09/13 00:18:13;;;;;;;3.53;2.95;;;14.80;99.90;;;;;;5070566;28;20492;-65
2022/09/13 00:20:40;;;;;;;7.82;3.50;;;14.80;99.90;;;;;;5068146;28;20066;-66
2022/09/13 00:23:05;;;;;;;4.68;3.35;;;14.80;99.90;;;;;;5066226;28;20036;-65
2022/09/13 00:25:31;;;;;;;;;;;14.70;99.90;;;;;;5069497;28;20052;-65
2022/09/13 00:27:57;;;;;;;4.53;3.08;;;14.70;99.90;;;;;;5067167;28;19920;-66
2022/09/13 00:30:22;;;;;;;;;;;14.70;99.90;;;;;;5069124;28;20059;-66
2022/09/13 00:32:48;;;;;;;4.15;3.38;;;14.70;99.90;;;;;;5067649;28;19921;-66
2022/09/13 00:35:13;;;;;;;;;;;14.70;99.90;;;;;;5066726;28;20036;-66
2022/09/13 00:37:39;;;;;;;4.80;3.08;;;14.60;99.90;;;;;;5067553;28;19920;-66
2022/09/13 00:40:05;;;;;;;;;;;14.60;99.90;;;;;;5067966;28;20121;-65
2022/09/13 00:42:32;;;;;;;3.70;2.72;;;14.60;99.90;;;;;;5068153;28;19924;-66
2022/09/13 00:45:10;;;;;;;6.55;3.88;;;14.70;99.90;;;;;;5066049;28;20040;-65
2022/09/13 00:47:37;;;;;;;4.32;3.28;;;14.70;99.90;;;;;;5064926;28;20080;-65
2022/09/13 00:50:24;;;;;;;3.78;3.10;;;14.60;99.90;;;;;;5069148;28;20107;-65
2022/09/13 00:52:58;;;;;;;4.00;2.80;;;14.60;99.90;;;;;;5067104;28;20049;-66
2022/09/13 00:55:36;;;;;;;5.05;3.30;;;14.70;99.90;;;;;;5068924;28;20811;-65
2022/09/13 00:58:08;;;;;;;3.45;2.90;;;14.70;99.90;;;;;;5060258;28;20044;-66
2022/09/13 01:00:35;;;;;;;3.83;3.05;;;14.70;99.90;;;;;;5066521;28;20527;-65
2022/09/13 01:03:05;;;;;;;5.47;3.45;;;14.70;99.90;;;;;;5066801;28;20033;-66
2022/09/13 01:05:36;;;;;;;4.82;2.75;;;14.60;99.90;;;;;;5065926;28;20045;-65
2022/09/13 01:08:02;;;;;;;5.00;3.05;;;14.60;99.90;;;;;;5059537;28;20512;-65
2022/09/13 01:10:30;;;;;;;5.78;3.45;;;14.60;99.90;;;;;;5065899;28;20039;-65
2022/09/13 01:13:21;;;;;;;5.93;2.80;;;14.60;99.90;;;;;;5067105;28;20041;-66
2022/09/13 01:15:47;;;;;;;7.57;3.08;;;14.60;99.90;;;;;;5063595;28;20516;-66
2022/09/13 01:18:14;;;;;;;5.47;2.75;;;14.60;99.90;;;;;;5067063;28;20043;-64
2022/09/13 01:20:58;;;;;;;3.97;3.22;;;14.50;99.90;;;;;;5066836;28;20036;-65
2022/09/13 01:23:27;;;;;;;3.55;2.78;;;14.50;99.90;;;;;;5066947;28;20036;-65
2022/09/13 01:26:29;;;;;;;3.08;2.72;;;14.40;99.90;;;;;;5059867;28;20049;-64
2022/09/13 01:29:22;;;;;;;4.15;3.20;;;14.50;99.90;;;;;;5065756;28;20040;-65
2022/09/13 01:32:05;;;;;;;3.33;2.83;;;14.50;99.90;;;;;;5064848;28;20041;-66
2022/09/13 01:34:52;;;;;;;3.55;2.72;;;14.50;99.90;;;;;;5065320;28;20044;-67
2022/09/13 01:37:20;;;;;;;;;;;14.50;99.90;;;;;;5064745;28;20047;-65
2022/09/13 01:40:31;;;;;;;2.75;2.47;;;14.60;99.90;;;;;;5067166;28;21400;-66
2022/09/13 01:43:12;;;;;;;5.55;2.28;;;14.70;99.90;;;;;;5066372;28;20068;-65
2022/09/13 01:46:05;;;;;;;2.13;1.92;;;14.80;99.90;;;;;;5066993;28;20040;-66
2022/09/13 01:48:43;;;;;;;3.30;2.15;;;14.90;99.90;;;;;;5053147;28;20055;-65
2022/09/13 01:51:34;;;;;;;2.78;2.30;;;14.90;99.90;;;;;;5065440;28;20037;-65
2022/09/13 01:54:10;;;;;;;5.18;2.05;;;15.00;99.90;;;;;;5065100;28;20056;-65
2022/09/13 01:57:00;;;;;;;4.68;2.13;;;15.00;99.90;;;;;;5066843;28;20089;-64
2022/09/13 01:59:35;;;;;;;2.33;2.13;;;15.00;99.90;;;;;;5063717;28;20049;-65
2022/09/13 02:02:18;;;;;;;3.28;2.33;;;15.10;99.90;;;;;;5065642;28;20128;-64
2022/09/13 02:04:53;;;;;;;9.95;2.10;;;15.10;99.90;;;;;;5067740;28;20126;-66
2022/09/13 02:07:35;;;;;;;3.80;2.13;;;15.10;99.90;;;;;;5065104;28;20076;-65
2022/09/13 02:10:19;;;;;;;3.40;2.45;;;15.20;99.90;;;;;;5035846;28;20038;-64
2022/09/13 02:12:47;;;;;;;2.78;1.90;;;15.20;99.90;;;;;;5065052;28;20127;-65
2022/09/13 02:15:17;;;;;;;2.83;2.20;;;15.20;99.90;;;;;;5063984;28;20032;-65
2022/09/13 02:17:58;;;;;;;4.05;2.03;;;15.30;99.90;;;;;;5065374;28;20131;-65
2022/09/13 02:20:32;;;;;;;2.40;1.85;;;15.20;99.90;;;;;;5065326;28;20037;-65
2022/09/13 02:23:01;;;;;;;5.50;1.65;;;15.30;99.90;;;;;;5064448;28;20131;-65
2022/09/13 02:25:30;;;;;;;3.53;2.08;;;15.30;99.90;;;;;;5063777;28;20041;-65
2022/09/13 02:28:00;;;;;;;2.03;1.70;;;15.40;99.90;;;;;;5065817;28;20064;-65
2022/09/13 02:30:27;;;;;;;4.05;1.75;;;15.40;99.90;;;;;;5064752;28;20041;-65
2022/09/13 02:33:01;;;;;;;7.90;2.25;;;15.40;99.90;;;;;;5064505;28;20044;-65
2022/09/13 02:35:45;;;;;;;7.63;2.45;;;15.50;99.90;;;;;;5064954;28;20408;-65
2022/09/13 02:38:26;;;;;;;4.97;2.00;;;15.50;99.90;;;;;;5060148;28;20124;-65
2022/09/13 02:41:06;;;;;;;3.17;1.90;;;15.50;99.90;;;;;;5064506;28;20036;-65
2022/09/13 02:43:38;;;;;;;10.25;1.95;;;15.50;99.90;;;;;;5064691;28;20070;-65
2022/09/13 02:46:25;;;;;;;4.22;1.85;;;15.50;99.90;;;;;;5065075;28;20048;-66
2022/09/13 02:49:32;;;;;;;4.43;1.65;;;15.60;99.90;;;;;;5065324;28;20064;-66
2022/09/13 02:52:15;;;;;;;1.75;1.50;;;15.60;99.90;;;;;;5015247;28;20048;-66
2022/09/13 02:54:46;;;;;;;8.05;1.70;;;15.70;99.90;;;;;;5064304;28;20036;-66
2022/09/13 02:57:19;;;;;;;2.33;1.38;;;15.70;99.90;;;;;;5066464;28;20040;-66
2022/09/13 02:59:47;;;;;;;3.20;1.90;;;15.80;99.90;;;;;;5064507;28;20045;-66
2022/09/13 03:02:15;;;;;;;4.75;1.48;;;15.80;99.90;;;;;;5063144;28;20040;-66
2022/09/13 03:04:41;;;;;;;4.28;1.30;;;15.80;99.90;;;;;;5063773;28;20041;-66
2022/09/13 03:07:10;;;;;;;;;;;15.80;99.90;;;;;;5065128;28;20045;-66
2022/09/13 03:09:38;;;;;;;3.03;1.10;;;15.90;99.90;;;;;;5064649;28;19970;-66
2022/09/13 03:12:21;;;;;;;2.38;1.70;;;15.90;99.90;;;;;;5063578;28;20044;-66
2022/09/13 03:15:02;;;;;;;5.65;1.70;;;15.90;99.90;;;;;;5064145;28;20041;-66
2022/09/13 03:17:28;;;;;;;6.18;1.45;;;15.90;99.90;;;;;;5061199;28;20341;-66
2022/09/13 03:19:59;;;;;;;;;;;15.90;99.90;;;;;;5065136;28;20798;-66
2022/09/13 03:22:40;;;;;;;2.00;1.30;;;15.90;99.90;;;;;;5065383;28;20710;-66
2022/09/13 03:25:42;;;;;;;2.40;1.60;;;15.90;99.90;;;;;;5058435;28;20183;-64
2022/09/13 03:28:20;;;;;;;2.58;1.30;;;16.00;99.90;;;;;;5057551;28;20211;-64
2022/09/13 03:30:55;;;;;;;2.88;1.77;;;15.90;99.90;;;;;;5064042;28;20040;-66
2022/09/13 03:33:34;;;;;;;1.83;1.15;;;15.90;99.90;;;;;;5063866;28;20044;-66
2022/09/13 03:36:30;;;;;;;6.63;1.63;;;15.90;99.90;;;;;;5063948;28;20479;-66
2022/09/13 03:39:19;;;;;;;3.25;1.40;;;15.90;99.90;;;;;;5063537;28;20068;-66
2022/09/13 03:41:51;;;;;;;4.05;1.27;;;16.00;99.90;;;;;;5061535;28;20066;-67
2022/09/13 03:44:20;;;;;;;3.13;1.73;;;16.00;99.90;;;;;;5064218;28;20045;-66
2022/09/13 03:46:50;;;;;;;4.75;1.95;;;15.90;99.90;;;;;;5064097;28;20048;-65
2022/09/13 03:49:19;;;;;;;4.07;1.50;;;15.90;99.90;;;;;;5064510;28;20049;-65
2022/09/13 03:51:48;;;;;;;1.88;1.50;;;16.00;99.90;;;;;;5064312;28;20037;-66
2022/09/13 03:54:18;;;;;;;7.60;1.40;;;16.00;99.90;;;;;;5066716;28;20154;-66
2022/09/13 03:57:15;;;;;;;2.53;1.50;;;16.10;99.90;;;;;;5069733;28;20040;-66
2022/09/13 03:59:46;;;;;;;2.15;1.60;;;16.10;99.90;;;;;;5069967;28;20036;-65
2022/09/13 04:02:12;;;;;;;2.42;1.50;;;16.10;99.90;;;;;;5066670;28;20427;-65
2022/09/13 04:04:38;;;;;;;;;;;16.10;99.90;;;;;;5069328;28;20036;-65
2022/09/13 04:07:04;;;;;;;1.95;1.40;;;16.10;99.90;;;;;;5067880;28;19926;-65
2022/09/13 04:09:30;;;;;;;;;;;16.10;99.90;;;;;;5069436;28;20033;-65
2022/09/13 04:11:56;;;;;;;2.40;1.70;;;16.10;99.90;;;;;;5067277;28;19956;-65
2022/09/13 04:14:25;;;;;;;;;;;16.10;99.90;;;;;;5062618;28;20412;-65
2022/09/13 04:16:54;;;;;;;3.03;1.38;;;16.10;99.90;;;;;;5066507;28;19924;-66
2022/09/13 04:19:20;;;;;;;2.13;1.50;;;16.10;99.90;;;;;;5067731;28;20029;-66
2022/09/13 04:21:53;;;;;;;3.15;1.52;;;16.10;99.90;;;;;;5068497;28;20554;-66
2022/09/13 04:24:19;;;;;;;2.33;1.45;;;16.10;99.90;;;;;;5070301;28;20644;-66
2022/09/13 04:26:49;;;;;;;;;;;16.20;99.90;;;;;;5071006;28;20150;-66
2022/09/13 04:29:18;;;;;;;3.35;1.48;;;16.10;99.90;;;;;;5069455;28;20017;-66
2022/09/13 04:31:45;;;;;;;8.43;1.52;;;16.20;99.90;;;;;;5069158;28;20515;-66
2022/09/13 04:34:11;;;;;;;4.35;1.83;;;16.20;99.90;;;;;;5068213;28;20816;-66
2022/09/13 04:36:37;;;;;;;5.30;1.50;;;16.20;99.90;;;;;;5068160;28;20044;-66
2022/09/13 04:39:03;;;;;;;;;;;16.20;99.90;;;;;;5064911;28;20047;-65
2022/09/13 04:41:28;;;;;;;2.45;1.42;;;16.30;99.90;;;;;;5071381;28;19912;-65
2022/09/13 04:43:54;;;;;;;;;;;16.20;99.90;;;;;;5070128;28;20041;-65
2022/09/13 04:46:20;;;;;;;2.25;1.33;;;16.20;99.90;;;;;;5070143;28;19925;-65
2022/09/13 04:48:49;;;;;;;;;;;16.20;99.90;;;;;;5070449;28;20041;-66
2022/09/13 04:51:15;;;;;;;2.17;1.60;;;16.20;99.90;;;;;;5068736;28;19932;-66
2022/09/13 04:53:41;;;;;;;4.65;1.75;;;16.30;99.90;;;;;;5066753;28;20097;-66
2022/09/13 04:56:08;;;;;;;;;;;16.20;99.90;;;;;;5068454;28;20044;-66
2022/09/13 04:58:33;;;;;;;1.98;1.50;;;16.20;99.90;;;;;;5067653;28;19926;-65
2022/09/13 05:01:03;;;;;;;;;;;16.10;99.90;;;;;;5066824;28;20479;-65
2022/09/13 05:03:30;;;;;;;2.55;1.42;;;16.00;99.90;;;;;;5066614;28;20582;-65
2022/09/13 05:06:10;;;;;;;5.88;1.65;;;16.00;99.90;;;;;;5064696;28;20040;-65
2022/09/13 05:08:36;;;;;;;2.95;1.85;;;16.00;99.90;;;;;;5065121;28;20044;-65
2022/09/13 05:11:03;;;;;;;4.03;1.50;;;16.00;99.90;;;;;;5067040;28;20044;-64
2022/09/13 05:13:29;;;;;;;6.30;1.98;;;16.00;99.90;;;;;;5066525;28;20562;-65
2022/09/13 05:16:00;;;;;;;3.53;1.40;;;16.00;99.90;;;;;;5067134;28;20583;-65
2022/09/13 05:18:26;;;;;;;2.38;1.63;;;16.00;99.90;;;;;;5068404;28;20040;-65
2022/09/13 05:20:56;;;;;;;4.93;1.80;;;15.90;99.90;;;;;;5060494;28;20094;-65
2022/09/13 05:23:23;;;;;;;8.70;2.97;;;15.90;99.90;;;;;;5063932;28;20045;-65
2022/09/13 05:25:53;;;;;;;2.40;1.55;;;15.90;99.90;;;;;;5066896;28;20535;-65
2022/09/13 05:28:18;;;;;;;3.72;1.70;;;15.90;99.90;;;;;;5061302;28;20835;-65
2022/09/13 05:30:52;;;;;;;;;;;16.00;99.90;;;;;;5063094;28;20036;-66
2022/09/13 05:33:18;;;;;;;4.03;1.50;;;16.00;99.90;;;;;;5060816;28;19985;-66
2022/09/13 05:35:43;;;;;;;;;;;16.00;99.90;;;;;;5066022;28;20040;-65
2022/09/13 05:38:09;;;;;;;6.63;1.88;;;16.00;99.90;;;;;;5066592;28;19962;-66
2022/09/13 05:40:34;;;;;;;;;;;16.00;99.90;;;;;;5066561;28;20622;-67
2022/09/13 05:43:00;;;;;;;2.47;1.10;;;16.00;99.90;;;;;;5066004;28;20056;-66
2022/09/13 05:45:26;;;;;;;;;;;16.00;99.90;;;;;;5066064;28;20500;-64
2022/09/13 05:47:51;;;;;;;5.35;1.70;;;16.00;99.90;;;;;;5064390;28;19916;-65
2022/09/13 05:50:17;;;;;;;;;;;16.00;99.90;;;;;;5064642;28;20032;-65
2022/09/13 05:52:42;;;;;;;1.65;1.52;;;16.10;99.90;;;;;;5065844;28;19969;-65
2022/09/13 05:55:08;;;;;;;;;;;16.00;99.90;;;;;;5066430;28;20078;-66
2022/09/13 05:57:36;;;;;;;2.10;1.27;;;16.00;99.90;;;;;;5065676;28;19917;-66
2022/09/13 06:00:02;;;;;;;2.20;1.48;;;16.00;99.90;;;;;;5066285;28;20063;-66
2022/09/13 06:02:30;;;;;;;4.63;1.55;;;16.10;99.90;;;;;;5061263;28;20102;-63
2022/09/13 06:04:55;;;;;;;2.38;1.63;;;16.10;99.90;;;;;;5065611;28;20105;-66
2022/09/13 06:07:21;;;;;;;;;;;16.10;99.90;;;;;;5065872;28;21094;-66
2022/09/13 06:09:46;;;;;;;2.92;1.67;;;16.10;99.90;;;;;;5065186;28;20438;-66
2022/09/13 06:12:12;;;;;;;;;;;16.10;99.90;;;;;;5066516;28;20032;-66
2022/09/13 06:14:38;;;;;;;2.28;1.80;;;16.10;99.90;;;;;;5064693;28;19912;-66
2022/09/13 06:17:03;;;;;;;3.90;1.30;;;16.20;99.90;;;;;;5066272;28;20312;-65
2022/09/13 06:19:29;;;;;;;;;;;16.20;99.90;;;;;;5068919;28;20990;-65
2022/09/13 06:21:54;;;;;;;2.45;1.52;;;16.30;99.90;;;;;;5066047;28;19920;-65
2022/09/13 06:24:20;;;;;;;;;;;16.20;99.90;;;;;;5065454;28;20717;-66
2022/09/13 06:26:45;;;;;;;1.80;1.40;;;16.20;99.90;;;;;;5066473;28;19924;-66
2022/09/13 06:29:11;;;;;;;;;;;16.20;99.90;;;;;;5066537;28;20062;-66
2022/09/13 06:31:42;;;;;;;4.38;1.50;;;16.30;99.90;;;;;;5062453;28;19913;-66
2022/09/13 06:34:11;;;;;;;2.60;1.58;;;16.30;99.90;;;;;;5058764;28;20032;-66
2022/09/13 06:36:37;;;;;;;2.20;1.40;;;16.30;99.90;;;;;;5063998;28;20080;-66
2022/09/13 06:39:05;;;;;;;;;;;16.30;99.90;;;;;;5065202;28;20133;-67
2022/09/13 06:41:30;;;;;;;3.92;2.00;;;16.40;99.90;;;;;;5064923;28;19942;-63
2022/09/13 06:43:57;;;;;;;;;;;16.40;99.90;;;;;;5055725;28;20063;-62
2022/09/13 06:46:23;;;;;;;3.40;1.70;;;16.40;99.90;;;;;;5063613;28;19931;-62
2022/09/13 06:48:49;;;;;;;6.57;3.05;;;16.50;99.90;;;;;;5062035;28;20040;-62
2022/09/13 06:51:16;;;;;;;;;;;16.50;99.90;;;;;;5064459;28;20050;-66
2022/09/13 06:53:43;;;;;;;5.22;1.50;;;16.50;99.90;;;;;;5061252;28;19917;-65
2022/09/13 06:56:13;;;;;;;5.13;1.80;;;16.60;99.90;;;;;;5067445;28;20072;-65
2022/09/13 06:58:41;;;;;;;2.28;1.48;;;16.60;99.90;;;;;;5063517;28;20044;-65
2022/09/13 07:01:16;;;;;;;2.53;1.38;;;16.70;99.90;;;;;;5052304;28;20040;-65
2022/09/13 07:03:47;;;;;;;4.20;1.40;;;16.70;99.90;;;;;;5062404;28;20037;-65
2022/09/13 07:06:18;;;;;;;3.30;1.45;;;16.70;99.90;;;;;;5063787;28;20147;-65
2022/09/13 07:08:45;;;;;;;4.78;1.60;;;16.70;99.90;;;;;;5054803;28;20028;-66
2022/09/13 07:11:14;;;;;;;4.07;1.98;;;16.70;99.90;;;;;;5060013;28;20037;-66
2022/09/13 07:13:40;;;;;;;1.90;1.60;;;16.80;99.90;;;;;;5063974;28;20032;-65
2022/09/13 07:16:07;;;;;;;;;;;16.80;99.90;;;;;;5062434;28;20485;-65
2022/09/13 07:18:33;;;;;;;1.77;1.00;;;16.90;99.90;;;;;;5059563;28;19916;-65
2022/09/13 07:21:07;;;;;;;2.65;1.90;;;16.80;99.90;;;;;;5063444;28;20301;-64
2022/09/13 07:23:34;;;;;;;3.30;1.58;;;16.90;99.90;;;;;;5062317;28;20048;-65
2022/09/13 07:26:01;;;;;;;3.03;1.80;;;16.90;99.90;;;;;;5065424;28;20762;-64
2022/09/13 07:28:34;;;;;;;2.13;1.77;;;17.00;99.90;;;;;;5067637;28;20861;-65
2022/09/13 07:31:19;;;;;;;2.17;1.30;;;17.10;99.90;;;;;;5068277;28;20033;-65
2022/09/13 07:33:45;;;;;;;2.85;1.25;;;17.10;99.90;;;;;;5068434;28;20044;-65
2022/09/13 07:36:12;;;;;;;1.48;1.38;;;17.10;99.90;;;;;;5069222;28;20044;-65
2022/09/13 07:38:40;;;;;;;2.05;1.52;;;17.10;99.90;;;;;;5070443;28;20485;-65
2022/09/13 07:41:09;;;;;;;3.60;1.15;;;17.10;99.90;;;;;;5069609;28;20036;-65
2022/09/13 07:43:36;;;;;;;1.40;1.20;;;17.20;99.90;;;;;;5069909;28;20123;-65
2022/09/13 07:46:04;;;;;;;3.38;1.15;;;17.20;99.90;;;;;;5069297;28;20060;-65
2022/09/13 07:48:32;;;;;;;2.55;1.42;;;17.20;99.90;;;;;;5070231;28;20044;-65
2022/09/13 07:51:06;;;;;;;2.33;1.30;;;17.30;99.90;;;;;;5069700;28;20076;-65
2022/09/13 07:53:33;;;;;;;1.55;1.27;;;17.30;99.90;;;;;;5052667;28;20067;-65
2022/09/13 07:56:10;;;;;;;2.60;1.30;;;17.30;99.90;;;;;;5071858;28;20400;-65
2022/09/13 07:58:37;;;;;;;1.52;1.30;;;17.30;99.90;;;;;;5070390;28;20041;-65
2022/09/13 08:01:14;;;;;;;4.13;1.40;;;17.40;99.90;;;;;;5068902;28;20040;-65
2022/09/13 08:03:40;;;;;;;1.70;1.27;;;17.40;99.90;;;;;;5067430;28;20049;-64
2022/09/13 08:06:06;;;;;;;;;;;17.40;99.90;;;;;;5067156;28;20134;-65
2022/09/13 08:08:33;;;;;;;5.10;1.80;;;17.50;99.90;;;;;;5067606;28;19932;-65
2022/09/13 08:11:00;;;;;;;6.78;1.63;;;17.50;99.90;;;;;;5067616;28;20024;-65
2022/09/13 08:13:26;;;;;;;3.10;1.17;;;17.50;99.90;;;;;;5067610;28;20641;-65
2022/09/13 08:15:52;;;;;;;4.15;1.38;;;17.50;99.90;;;;;;5059209;28;20139;-64
2022/09/13 08:18:18;;;;;;;1.50;1.20;;;17.50;99.90;;;;;;5067600;28;20046;-65
2022/09/13 08:20:44;;;;;;;13.30;1.60;;;17.60;99.90;;;;;;5067949;28;20128;-65
2022/09/13 08:23:11;;;;;;;;;;;17.60;99.90;;;;;;5066973;28;20135;-65
2022/09/13 08:25:40;;;;;;;1.60;1.30;;;17.60;99.90;;;;;;5067493;28;19924;-64
2022/09/13 08:28:13;;;;;;;2.10;1.48;;;17.70;99.90;;;;;;5067290;28;20119;-64
2022/09/13 08:30:41;;;;;;;2.47;1.50;;;17.70;99.90;;;;;;5064749;28;20040;-65
2022/09/13 08:33:06;;;;;;;2.50;1.50;;;17.80;99.90;;;;;;5064732;28;20040;-65
2022/09/13 08:35:32;;;;;;;;;;;17.80;99.90;;;;;;5062393;28;20044;-65
2022/09/13 08:37:59;;;;;;;2.60;1.50;;;17.90;99.90;;;;;;5067004;28;19917;-63
2022/09/13 08:40:29;;;;;;;7.50;1.75;;;17.80;99.90;;;;;;5064256;28;20060;-66
2022/09/13 08:43:23;;;;;;;7.78;1.73;;;17.90;99.90;;;;;;5066266;28;20731;-66
2022/09/13 08:46:20;;;;;;;3.08;1.52;;;17.90;99.90;;;;;;5066828;28;20067;-66
2022/09/13 08:48:47;;;;;;;4.13;1.50;;;18.00;99.90;;;;;;5065171;28;20124;-66
2022/09/13 08:51:35;;;;;;;2.90;1.63;;;18.00;99.90;;;;;;5062908;28;20041;-66
2022/09/13 08:54:02;;;;;;;1.98;1.20;;;18.20;99.90;;;;;;5060991;28;20112;-66
2022/09/13 08:56:46;;;;;;;2.47;1.52;;;18.40;99.90;;;;;;5063247;28;20036;-65
2022/09/13 08:59:50;;;;;;;2.05;1.42;;;18.60;99.90;;;;;;5060557;28;20040;-66
2022/09/13 09:02:43;;;;;;;2.47;1.50;;;18.70;99.90;;;;;;5066088;28;20056;-67
2022/09/13 09:05:19;;;;;;;1.90;1.20;;;18.90;99.90;;;;;;5064616;28;20036;-66
2022/09/13 09:07:59;;;;;;;2.75;1.42;;;19.10;99.90;;;;;;5065828;28;20060;-67
2022/09/13 09:10:54;;;;;;;2.58;1.77;;;19.10;99.90;;;;;;5063469;28;20051;-67
2022/09/13 09:13:27;;;;;;;4.43;1.80;;;19.20;99.90;;;;;;5064725;28;20049;-66
2022/09/13 09:16:00;;;;;;;1.65;1.45;;;19.20;99.90;;;;;;5065742;28;20044;-64
2022/09/13 09:18:34;;;;;;;3.95;1.50;;;19.20;99.90;;;;;;5067770;28;20080;-66
2022/09/13 09:21:02;;;;;;;3.35;1.70;;;19.30;99.90;;;;;;5058846;28;20126;-66
2022/09/13 09:23:51;;;;;;;2.75;1.40;;;19.30;99.90;;;;;;5065989;28;20071;-66
2022/09/13 09:26:25;;;;;;;1.98;1.00;;;19.30;99.90;;;;;;5062511;28;20441;-66
2022/09/13 09:28:57;;;;;;;5.97;1.80;;;19.40;99.90;;;;;;5067289;28;20059;-66
2022/09/13 09:31:47;;;;;;;3.22;1.90;;;19.40;99.90;;;;;;5066565;28;20052;-66
2022/09/13 09:34:25;;;;;;;3.30;1.88;;;19.60;99.90;;;;;;5053670;28;20436;-66
2022/09/13 09:36:56;;;;;;;2.67;1.95;;;19.80;99.90;;;;;;5064203;28;20275;-65
2022/09/13 09:39:26;;;;;;;3.58;1.90;;;20.00;99.90;;;;;;5066269;28;20446;-68
2022/09/13 09:41:56;;;;;;;3.63;1.98;;;20.20;99.90;;;;;;5065667;28;20041;-66
2022/09/13 09:44:26;;;;;;;3.97;1.70;;;20.30;99.90;;;;;;5066552;28;20064;-66
2022/09/13 09:46:59;;;;;;;2.33;1.40;;;20.50;99.50;;;;;;5065695;28;20036;-66
2022/09/13 09:52:29;;;;;;;5.13;2.20;;;20.70;98.90;;;;;;5065565;28;20036;-65
2022/09/13 09:55:02;;;;;;;3.28;2.10;;;20.80;99.10;;;;;;5064814;28;20044;-68
2022/09/13 09:57:50;;;;;;;4.78;2.00;;;20.70;98.30;;;;;;5064341;28;20052;-67
2022/09/13 10:00:16;;;;;;;3.25;1.80;;;20.80;99.00;;;;;;5058596;28;20032;-68
2022/09/13 10:02:43;;;;;;;4.45;2.17;;;20.90;98.80;;;;;;5065342;28;20036;-66
2022/09/13 10:05:11;;;;;;;6.72;1.90;;;20.90;97.80;;;;;;5064818;28;20706;-66
2022/09/13 10:07:39;;;;;;;4.15;1.80;;;21.00;98.10;;;;;;5059899;28;20095;-67
2022/09/13 10:10:20;;;;;;;4.88;2.00;;;20.90;97.90;;;;;;5060476;28;20041;-66
2022/09/13 10:12:50;;;;;;;4.45;2.58;;;20.90;98.40;;;;;;5063176;28;20056;-62
2022/09/13 10:15:23;;;;;;;6.85;2.20;;;20.90;97.10;;;;;;5064622;28;20154;-66
2022/09/13 10:18:15;;;;;;;2.50;1.80;;;20.80;97.90;;;;;;5064027;28;20055;-68
2022/09/13 10:20:41;;;;;;;5.50;2.00;;;20.80;96.50;;;;;;5065257;28;20040;-66
2022/09/13 10:23:13;;;;;;;2.38;1.42;;;20.80;97.80;;;;;;5062422;28;20033;-67
2022/09/13 10:25:40;;;;;;;4.60;1.38;;;20.90;97.60;;;;;;5066198;28;20132;-67
2022/09/13 10:28:13;;;;;;;3.90;1.27;;;21.00;97.10;;;;;;5056150;28;20048;-66
2022/09/13 10:30:47;;;;;;;3.88;1.70;;;21.00;97.30;;;;;;5060351;28;20045;-67
2022/09/13 10:33:23;;;;;;;2.95;1.48;;;21.10;97.10;;;;;;5064663;28;20070;-65
2022/09/13 10:35:53;;;;;;;3.60;1.88;;;21.10;97.40;;;;;;5063033;28;20037;-65
2022/09/13 10:38:39;;;;;;;4.47;1.77;;;21.00;97.00;;;;;;5064773;28;20043;-64
2022/09/13 10:41:19;;;;;;;3.55;1.40;;;21.10;97.60;;;;;;5058638;28;20024;-62
2022/09/13 10:43:45;;;;;;;3.13;1.85;;;21.10;97.30;;;;;;5065090;28;20048;-63
2022/09/13 10:46:20;;;;;;;3.10;1.58;;;21.00;97.90;;;;;;5061174;28;20041;-66
2022/09/13 10:48:54;;;;;;;5.15;1.85;;;21.10;97.90;;;;;;5065344;28;20046;-63
2022/09/13 10:51:31;;;;;;;2.95;1.48;;;21.10;97.50;;;;;;5064893;28;20045;-65
2022/09/13 10:54:16;;;;;;;4.95;1.90;;;21.10;97.60;;;;;;5063897;28;20373;-67
2022/09/13 10:56:42;;;;;;;3.45;1.58;;;21.10;97.70;;;;;;5064593;28;20488;-68
2022/09/13 10:59:23;;;;;;;7.43;2.20;;;21.20;98.10;;;;;;5064059;28;20029;-67
2022/09/13 11:01:54;;;;;;;9.90;2.75;;;21.30;96.90;;;;;;5064642;28;20547;-68
2022/09/13 11:04:49;;;;;;;4.22;1.70;;;21.30;96.50;;;;;;5062332;28;20532;-68
2022/09/13 11:07:45;;;;;;;5.50;2.00;;;21.30;97.90;;;;;;5043886;28;20743;-68
2022/09/13 11:10:27;;;;;;;3.38;1.63;;;21.30;97.10;;;;;;5062212;28;20040;-68
2022/09/13 11:13:04;;;;;;;1.77;1.48;;;21.40;97.20;;;;;;5065890;28;20135;-68
2022/09/13 11:15:32;;;;;;;3.28;1.90;;;21.30;96.90;;;;;;5062508;28;20096;-67
2022/09/13 11:18:13;;;;;;;5.18;2.08;;;21.40;97.50;;;;;;5063495;28;20029;-68
2022/09/13 11:20:53;;;;;;;3.05;1.50;;;21.60;97.10;;;;;;5063015;28;20060;-68
2022/09/13 11:23:52;;;;;;;3.65;1.55;;;21.70;96.70;;;;;;5065209;28;20040;-68
2022/09/13 11:26:36;;;;;;;1.83;1.48;;;21.80;96.50;;;;;;5061231;28;20049;-68
2022/09/13 11:29:04;;;;;;;2.72;1.92;;;21.90;96.60;;;;;;5065170;28;20489;-68
2022/09/13 11:31:48;;;;;;;2.15;1.63;;;21.90;95.50;;;;;;5064638;28;20408;-68
2022/09/13 11:34:50;;;;;;;6.90;1.50;;;21.80;95.20;;;;;;5064118;28;20028;-69
2022/09/13 11:37:42;;;;;;;4.93;1.42;;;21.80;95.90;;;;;;5064416;28;20665;-68
2022/09/13 11:40:17;;;;;;;2.67;2.00;;;21.90;95.40;;;;;;5064806;28;20040;-69
2022/09/13 11:43:03;;;;;;;4.47;1.70;;;22.00;95.20;;;;;;5062838;28;20101;-65
2022/09/13 11:46:18;;;;;;;3.95;2.03;;;21.90;95.70;;;;;;5064210;28;20416;-66
2022/09/13 11:48:55;;;;;;;2.35;1.40;;;21.80;94.30;;;;;;5063406;28;20055;-66
2022/09/13 11:51:32;;;;;;;2.67;1.50;;;21.80;95.30;;;;;;5065287;28;20040;-68
2022/09/13 11:54:16;;;;;;;2.60;1.45;;;21.70;93.90;;;;;;5063576;28;20033;-66
2022/09/13 11:56:48;;;;;;;3.25;1.90;;;21.80;94.30;;;;;;5066051;28;20048;-65
2022/09/13 12:00:04;;;;;;;2.90;1.73;;;21.80;94.50;;;;;;5047117;28;20029;-65
2022/09/13 12:02:39;;;;;;;5.53;1.98;;;21.80;94.20;;;;;;5057885;28;20046;-64
2022/09/13 12:05:20;;;;;;;2.72;1.00;;;21.80;92.80;;;;;;5055229;28;20040;-66
2022/09/13 12:08:05;;;;;;;1.75;1.08;;;21.70;93.70;;;;;;5063665;28;20185;-67
2022/09/13 12:10:38;;;;;;;3.75;1.35;;;21.80;93.70;;;;;;5062040;28;20061;-67
2022/09/13 12:13:08;;;;;;;2.53;1.17;;;22.10;93.70;;;;;;5061957;28;20130;-67
2022/09/13 12:15:36;;;;;;;2.25;1.05;;;22.30;94.40;;;;;;5067061;28;20636;-67
2022/09/13 12:18:15;;;;;;;1.65;1.25;;;22.40;92.70;;;;;;5063947;28;20044;-68
2022/09/13 12:20:50;;;;;;;6.55;1.67;;;22.50;92.30;;;;;;5067753;28;20083;-67
2022/09/13 12:23:27;;;;;;;5.60;1.60;;;22.50;92.50;;;;;;5066281;28;20547;-68
2022/09/13 12:26:03;;;;;;;4.15;1.30;;;22.40;93.20;;;;;;5068935;28;20795;-66
2022/09/13 12:28:42;;;;;;;3.63;1.05;;;22.60;93.50;;;;;;5075747;28;20044;-67
2022/09/13 12:31:25;;;;;;;1.15;1.05;;;22.70;92.40;;;;;;5068375;28;20044;-66
2022/09/13 12:33:51;;;;;;;2.70;1.20;;;22.60;92.70;;;;;;5085609;28;20102;-66
2022/09/13 12:36:48;;;;;;;1.60;1.30;;;22.70;92.10;;;;;;5006051;28;20040;-69
2022/09/13 12:39:30;;;;;;;2.20;1.17;;;22.60;92.90;;;;;;5063525;28;20408;-67
2022/09/13 12:42:17;;;;;;;2.10;1.20;;;22.80;92.70;;;;;;5068081;28;20185;-68
2022/09/13 12:44:48;;;;;;;1.35;0.90;;;22.80;92.80;;;;;;5068163;28;20076;-66
2022/09/13 12:47:29;;;;;;;4.03;1.42;;;23.00;92.40;;;;;;5065285;28;20048;-65
2022/09/13 12:50:16;;;;;;;2.95;1.42;;;22.90;92.60;;;;;;5067300;28;20063;-65
2022/09/13 12:52:54;;;;;;;4.78;1.48;;;23.00;92.50;;;;;;5065907;28;20584;-68
2022/09/13 12:55:32;;;;;;;5.55;1.45;;;22.80;92.50;;;;;;5069378;28;20539;-68
2022/09/13 12:58:28;;;;;;;3.67;1.30;;;22.90;92.50;;;;;;5067800;28;20044;-67
2022/09/13 13:01:04;;;;;;;2.17;0.93;;;22.80;92.20;;;;;;5068528;28;20037;-67
2022/09/13 13:03:34;;;;;;;3.03;1.15;;;22.80;93.20;;;;;;5068486;28;20044;-68
2022/09/13 13:06:24;;;;;;;4.18;1.40;;;22.90;92.10;;;;;;5058407;28;20080;-68
2022/09/13 13:08:53;;;;;;;2.00;1.20;;;23.10;93.00;;;;;;5067412;28;20036;-65
2022/09/13 13:11:23;;;;;;;3.65;1.35;;;23.00;92.40;;;;;;5065566;28;20052;-66
2022/09/13 13:14:08;;;;;;;3.10;1.52;;;23.10;92.20;;;;;;5066223;28;20041;-65
2022/09/13 13:16:36;;;;;;;4.10;1.40;;;23.00;92.00;;;;;;5066786;28;20052;-66
2022/09/13 13:19:22;;;;;;;5.20;1.30;;;23.10;92.80;;;;;;5067290;28;20040;-66
2022/09/13 13:21:47;;;;;;;2.92;1.30;;;23.10;92.60;;;;;;5067863;28;20044;-67
2022/09/13 13:24:16;;;;;;;4.55;1.30;;;23.10;92.30;;;;;;5098260;28;20055;-68
2022/09/13 13:26:48;;;;;;;1.33;1.10;;;23.30;91.40;;;;;;5072777;28;20033;-66
2022/09/13 13:29:19;;;;;;;5.03;1.20;;;23.30;91.50;;;;;;5060061;28;20440;-68
2022/09/13 13:32:08;;;;;;;2.10;1.50;;;23.40;92.10;;;;;;5065448;28;20478;-65